Time;durP1;ratioP1;P1;durP2;ratioP2;P2;SDS_P1;SDS_P2;PMS_P1;PMS_P2;Temp;Humidity;BMP_temperature;BMP_pressure;BME280_temperature;BME280_humidity;BME280_pressure;Samples;Min_cycle;Max_cycle;Signal;HPM_P1;HPM_P2
2022/08/20 00:00:22;;;;;;;;;;;;;;;19.56;66.29;96838.94;30001;982;1877;-71
2022/08/20 00:00:54;;;;;;;;;;;;;;;19.54;66.58;96835.72;30001;987;1881;-80
2022/08/20 00:01:25;;;;;;;;;;;;;;;19.54;66.08;96835.72;30001;983;1876;-79
2022/08/20 00:01:56;;;;;;;;;;;;;;;19.50;66.44;96834.78;30001;983;1859;-82
2022/08/20 00:02:27;;;;;;;;;;;;;;;19.50;66.81;96840.31;30001;983;1872;-74
2022/08/20 00:02:59;;;;;;;;;;;;;;;19.47;66.70;96838.25;30001;983;1881;-71
2022/08/20 00:03:31;;;;;;;;;;;;;;;19.51;66.48;96830.94;30001;983;1876;-74
2022/08/20 00:04:03;;;;;;;;;;;;;;;19.51;66.79;96833.69;30001;983;1881;-76
2022/08/20 00:04:34;;;;;;;;;;;;;;;19.47;66.76;96836.28;30001;983;1876;-73
2022/08/20 00:05:06;;;;;;;;;;;;;;;19.46;66.98;96840.19;30001;983;1881;-73
2022/08/20 00:05:39;;;;;;;;;;;;;;;19.42;66.80;96834.59;30001;982;1877;-79
2022/08/20 00:06:13;;;;;;;;;;;;;;;19.39;67.21;96834.53;30001;982;1881;-73
2022/08/20 00:06:44;;;;;;;;;;;;;;;19.42;66.88;96834.59;30001;982;1877;-53
2022/08/20 00:07:16;;;;;;;;;;;;;;;19.43;66.90;96840.91;30001;982;1859;-77
2022/08/20 00:07:47;;;;;;;;;;;;;;;19.40;67.15;96841.62;30001;987;1851;-75
2022/08/20 00:08:19;;;;;;;;;;;;;;;19.42;66.95;96837.34;30001;982;1881;-73
2022/08/20 00:08:50;;;;;;;;;;;;;;;19.41;67.00;96841.25;30001;983;1876;-75
2022/08/20 00:09:20;;;;;;;;;;;;;;;19.41;67.22;96840.44;30001;983;1880;-73
2022/08/20 00:09:51;;;;;;;;;;;;;;;19.39;67.00;96840.81;30001;983;1876;-67
2022/08/20 00:10:22;;;;;;;;;;;;;;;19.45;67.23;96837.81;30001;983;1881;-72
2022/08/20 00:10:53;;;;;;;;;;;;;;;19.43;66.85;96841.69;30001;983;1876;-75
2022/08/20 00:11:26;;;;;;;;;;;;;;;19.40;67.18;96842.41;30001;983;1881;-80
2022/08/20 00:11:56;;;;;;;;;;;;;;;19.37;67.20;96834.88;30001;983;1876;-77
2022/08/20 00:12:28;;;;;;;;;;;;;;;19.32;67.56;96848.88;30001;971;1903;-72
2022/08/20 00:12:59;;;;;;;;;;;;;;;19.29;67.59;96844.06;30001;982;1855;-78
2022/08/20 00:13:33;;;;;;;;;;;;;;;19.27;67.50;96843.63;30001;982;1877;-74
2022/08/20 00:14:05;;;;;;;;;;;;;;;19.29;67.59;96843.28;30001;982;1877;-72
2022/08/20 00:14:36;;;;;;;;;;;;;;;19.29;67.71;96840.53;30001;982;1881;-71
2022/08/20 00:15:07;;;;;;;;;;;;;;;19.26;67.78;96847.53;30001;982;1877;-73
2022/08/20 00:15:38;;;;;;;;;;;;;;;19.23;67.62;96842.72;30001;982;1881;-71
2022/08/20 00:16:10;;;;;;;;;;;;;;;19.21;67.97;96847.75;30001;983;1876;-73
2022/08/20 00:16:41;;;;;;;;;;;;;;;19.19;68.39;96841.81;30001;983;1880;-71
2022/08/20 00:17:12;;;;;;;;;;;;;;;19.17;68.12;96843.31;30001;983;1876;-55
2022/08/20 00:17:43;;;;;;;;;;;;;;;19.17;68.37;96844.09;30001;983;1881;-77
2022/08/20 00:18:15;;;;;;;;;;;;;;;19.17;68.17;96844.09;30001;983;1854;-56
2022/08/20 00:18:46;;;;;;;;;;;;;;;19.17;68.40;96844.09;30001;983;1790;-72
2022/08/20 00:19:17;;;;;;;;;;;;;;;19.14;68.32;96844.81;30001;983;1876;-73
2022/08/20 00:19:48;;;;;;;;;;;;;;;19.13;68.45;96843.22;30001;983;1881;-71
2022/08/20 00:20:23;;;;;;;;;;;;;;;19.10;68.34;96849.41;30001;983;1877;-71
2022/08/20 00:20:56;;;;;;;;;;;;;;;19.08;68.54;96843.44;30001;982;1881;-73
2022/08/20 00:21:30;;;;;;;;;;;;;;;19.06;68.60;96841.03;30001;982;1877;-71
2022/08/20 00:22:01;;;;;;;;;;;;;;;19.05;68.83;96839.47;30001;982;1881;-71
2022/08/20 00:22:32;;;;;;;;;;;;;;;19.02;69.04;96844.87;30001;982;1877;-71
2022/08/20 00:23:03;;;;;;;;;;;;;;;19.03;69.12;96840.97;30001;982;1881;-78
2022/08/20 00:23:35;;;;;;;;;;;;;;;19.03;68.76;96838.22;30001;982;1855;-72
2022/08/20 00:24:06;;;;;;;;;;;;;;;19.02;68.83;96836.63;30001;983;1876;-56
2022/08/20 00:24:37;;;;;;;;;;;;;;;19.00;69.09;96836.16;30001;983;1876;-72
2022/08/20 00:25:13;;;;;;;;;;;;;;;18.99;69.19;96840.88;30001;983;1880;-73
2022/08/20 00:25:44;;;;;;;;;;;;;;;18.99;68.94;96834.56;30001;983;1876;-73
2022/08/20 00:26:19;;;;;;;;;;;;;;;18.97;69.42;96842.34;30001;983;1881;-74
2022/08/20 00:26:50;;;;;;;;;;;;;;;18.95;69.19;96845.44;30001;983;1876;-55
2022/08/20 00:27:20;;;;;;;;;;;;;;;18.96;69.07;96843.50;30001;983;1881;-72
2022/08/20 00:27:52;;;;;;;;;;;;;;;18.94;69.08;96840.31;30001;983;1877;-72
2022/08/20 00:28:23;;;;;;;;;;;;;;;18.96;69.31;96843.50;30001;982;1881;-70
2022/08/20 00:28:53;;;;;;;;;;;;;;;18.97;68.89;96839.59;30001;982;1855;-71
2022/08/20 00:29:24;;;;;;;;;;;;;;;18.97;69.04;96839.59;30001;982;1877;-73
2022/08/20 00:29:55;;;;;;;;;;;;;;;18.97;68.91;96845.09;30001;982;1855;-73
2022/08/20 00:30:26;;;;;;;;;;;;;;;18.97;69.17;96845.09;30001;982;1877;-71
2022/08/20 00:30:57;;;;;;;;;;;;;;;18.96;69.23;96849.00;30001;982;1877;-71
2022/08/20 00:31:28;;;;;;;;;;;;;;;18.96;69.24;96847.06;30001;983;1858;-77
2022/08/20 00:32:02;;;;;;;;;;;;;;;18.96;69.12;96846.25;30001;983;1872;-72
2022/08/20 00:32:46;;;;;;;;;;;;;;;18.94;69.31;96856.78;30001;983;1881;-71
2022/08/20 00:33:18;;;;;;;;;;;;;;;18.91;69.46;96846.50;30001;983;1876;-71
2022/08/20 00:33:50;;;;;;;;;;;;;;;18.87;69.86;96846.37;30001;988;1881;-71
2022/08/20 00:34:21;;;;;;;;;;;;;;;18.85;70.02;96848.69;30001;983;1876;-73
2022/08/20 00:34:51;;;;;;;;;;;;;;;18.85;70.02;96850.63;30001;983;1859;-70
2022/08/20 00:35:25;;;;;;;;;;;;;;;18.81;70.19;96852.47;30001;983;1872;-71
2022/08/20 00:35:55;;;;;;;;;;;;;;;18.85;69.77;96847.88;30001;982;1881;-76
2022/08/20 00:36:26;;;;;;;;;;;;;;;18.85;69.83;96851.44;30001;982;1877;-72
2022/08/20 00:36:58;;;;;;;;;;;;;;;18.86;69.88;96849.47;30001;982;1881;-71
2022/08/20 00:37:29;;;;;;;;;;;;;;;18.85;69.68;96854.19;30001;982;1877;-58
2022/08/20 00:38:00;;;;;;;;;;;;;;;18.86;69.79;96850.28;30001;987;1881;-55
2022/08/20 00:38:33;;;;;;;;;;;;;;;18.86;69.87;96849.47;30001;983;1876;-70
2022/08/20 00:39:04;;;;;;;;;;;;;;;18.85;69.72;96847.88;30001;983;1880;-71
2022/08/20 00:39:35;;;;;;;;;;;;;;;18.84;69.70;96846.28;30001;983;1854;-71
2022/08/20 00:40:06;;;;;;;;;;;;;;;18.83;70.02;96852.91;30001;983;1876;-73
2022/08/20 00:40:39;;;;;;;;;;;;;;;18.82;69.87;96854.06;30001;983;1876;-76
2022/08/20 00:41:12;;;;;;;;;;;;;;;18.80;70.15;96851.66;30001;983;1881;-73
2022/08/20 00:41:43;;;;;;;;;;;;;;;18.78;70.40;96842.16;30001;983;1876;-71
2022/08/20 00:42:14;;;;;;;;;;;;;;;18.77;70.03;96848.81;30001;983;1881;-71
2022/08/20 00:42:47;;;;;;;;;;;;;;;18.77;70.35;96846.06;30001;983;1877;-72
2022/08/20 00:43:26;;;;;;;;;;;;;;;18.77;70.34;96852.34;30001;982;1881;-71
2022/08/20 00:44:09;;;;;;;;;;;;;;;18.78;70.16;96847.66;30001;982;1877;-72
2022/08/20 00:44:45;;;;;;;;;;;;;;;18.77;70.34;96846.84;30001;976;1874;-72
2022/08/20 00:45:16;;;;;;;;;;;;;;;18.77;70.36;96846.84;30001;982;1872;-72
2022/08/20 00:45:47;;;;;;;;;;;;;;;18.76;70.32;96850.75;30001;983;1880;-72
2022/08/20 00:46:21;;;;;;;;;;;;;;;18.75;70.59;96847.19;30001;983;1854;-70
2022/08/20 00:46:53;;;;;;;;;;;;;;;18.75;70.48;96847.19;30001;983;1876;-75
2022/08/20 00:47:23;;;;;;;;;;;;;;;18.77;70.40;96844.09;30001;983;1876;-71
2022/08/20 00:47:54;;;;;;;;;;;;;;;18.81;70.00;96849.72;30001;983;1880;-71
2022/08/20 00:48:27;;;;;;;;;;;;;;;18.79;70.15;96849.25;30001;983;1876;-71
2022/08/20 00:48:59;;;;;;;;;;;;;;;18.77;70.11;96841.34;30001;983;1881;-71
2022/08/20 00:49:31;;;;;;;;;;;;;;;18.77;70.31;96846.06;30001;983;1876;-72
2022/08/20 00:50:06;;;;;;;;;;;;;;;18.77;70.32;96843.31;30001;983;1859;-72
2022/08/20 00:50:37;;;;;;;;;;;;;;;18.77;70.38;96846.06;30001;982;1872;-70
2022/08/20 00:51:17;;;;;;;;;;;;;;;18.75;70.42;96844.44;30001;982;1881;-72
2022/08/20 00:51:54;;;;;;;;;;;;;;;18.74;70.44;96842.84;30001;982;1855;-70
2022/08/20 00:52:25;;;;;;;;;;;;;;;18.74;70.43;96842.84;30001;982;1877;-70
2022/08/20 00:52:57;;;;;;;;;;;;;;;18.74;70.42;96842.84;30001;982;1855;-74
2022/08/20 00:53:28;;;;;;;;;;;;;;;18.77;70.19;96846.06;30001;983;1876;-72
2022/08/20 00:54:08;;;;;;;;;;;;;;;18.78;70.39;96842.16;30001;983;1854;-72
2022/08/20 00:55:08;;;;;;;;;;;;;;;18.75;70.42;96844.44;30001;983;1876;-72
2022/08/20 00:55:39;;;;;;;;;;;;;;;18.75;70.72;96849.94;30001;983;1850;-71
2022/08/20 00:56:10;;;;;;;;;;;;;;;18.74;70.90;96844.78;30001;983;1876;-73
2022/08/20 00:56:42;;;;;;;;;;;;;;;18.72;70.85;96850.63;30001;983;1876;-72
2022/08/20 00:57:39;;;;;;;;;;;;;;;18.71;70.65;96843.53;30001;960;1904;-71
2022/08/20 00:58:10;;;;;;;;;;;;;;;18.71;70.91;96842.78;30001;982;1872;-71
2022/08/20 00:58:44;;;;;;;;;;;;;;;18.70;71.10;96844.72;30001;971;1899;-71
2022/08/20 00:59:18;;;;;;;;;;;;;;;18.68;70.92;96844.25;30001;982;1877;-73
2022/08/20 00:59:50;;;;;;;;;;;;;;;18.69;70.98;96845.87;30001;982;1859;-71
2022/08/20 01:00:32;;;;;;;;;;;;;;;18.70;70.87;96846.66;30001;982;1872;-73
2022/08/20 01:01:05;;;;;;;;;;;;;;;18.71;70.81;96849.03;30001;983;1880;-71
2022/08/20 01:01:38;;;;;;;;;;;;;;;18.69;70.92;96845.87;30001;983;1876;-72
2022/08/20 01:02:11;;;;;;;;;;;;;;;18.70;70.94;96843.91;30001;983;1859;-73
2022/08/20 01:02:42;;;;;;;;;;;;;;;18.70;70.54;96850.22;30001;983;1872;-72
2022/08/20 01:03:15;;;;;;;;;;;;;;;18.71;71.05;96849.03;30001;983;1881;-72
2022/08/20 01:03:46;;;;;;;;;;;;;;;18.69;70.88;96856.06;30001;983;1876;-70
2022/08/20 01:04:17;;;;;;;;;;;;;;;18.72;70.50;96849.84;30001;983;1881;-72
2022/08/20 01:04:53;;;;;;;;;;;;;;;18.71;70.75;96849.03;30001;983;1877;-71
2022/08/20 01:05:24;;;;;;;;;;;;;;;18.71;70.84;96857.28;30001;983;1881;-72
2022/08/20 01:05:55;;;;;;;;;;;;;;;18.69;70.82;96851.38;30001;982;1877;-71
2022/08/20 01:06:26;;;;;;;;;;;;;;;18.70;71.16;96846.66;30001;982;1881;-71
2022/08/20 01:06:57;;;;;;;;;;;;;;;18.68;70.58;96855.25;30001;982;1877;-71
2022/08/20 01:07:33;;;;;;;;;;;;;;;18.69;70.77;96851.38;30001;982;1859;-71
2022/08/20 01:08:04;;;;;;;;;;;;;;;18.69;70.64;96851.38;30001;982;1873;-71
2022/08/20 01:08:36;;;;;;;;;;;;;;;18.68;70.85;96849.75;30001;983;1880;-84
2022/08/20 01:09:11;;;;;;;;;;;;;;;18.72;70.70;96855.34;30001;983;1876;-71
2022/08/20 01:09:44;;;;;;;;;;;;;;;18.72;70.84;96856.13;30001;983;1881;-70
2022/08/20 01:10:17;;;;;;;;;;;;;;;18.71;70.85;96857.28;30001;983;1854;-71
2022/08/20 01:10:48;;;;;;;;;;;;;;;18.70;70.72;96857.66;30001;983;1876;-71
2022/08/20 01:11:31;;;;;;;;;;;;;;;18.70;71.07;96863.97;30001;983;1876;-73
2022/08/20 01:12:04;;;;;;;;;;;;;;;18.70;71.18;96854.91;30001;983;1880;-71
2022/08/20 01:12:36;;;;;;;;;;;;;;;18.69;71.13;96861.56;30001;982;1854;-71
2022/08/20 01:13:10;;;;;;;;;;;;;;;18.69;71.01;96862.34;30001;982;1876;-77
2022/08/20 01:13:42;;;;;;;;;;;;;;;18.70;71.05;96855.72;30001;982;1876;-73
2022/08/20 01:15:16;;;;;;;;;;;;;;;18.74;70.66;96859.34;30001;982;1877;-72
2022/08/20 01:15:49;;;;;;;;;;;;;;;18.74;70.71;96864.84;30001;983;1884;-72
2022/08/20 01:16:27;;;;;;;;;;;;;;;18.75;70.32;96860.94;30001;983;1858;-71
2022/08/20 01:17:01;;;;;;;;;;;;;;;18.75;70.38;96855.44;30001;983;1880;-73
2022/08/20 01:17:35;;;;;;;;;;;;;;;18.77;70.33;96857.06;30001;982;1882;-71
2022/08/20 01:18:09;;;;;;;;;;;;;;;18.75;70.73;96854.66;30001;983;1863;-71
2022/08/20 01:18:41;;;;;;;;;;;;;;;18.74;70.48;96856.59;30001;983;1876;-71
2022/08/20 01:19:14;;;;;;;;;;;;;;;18.74;70.51;96859.34;30001;983;1885;-74
2022/08/20 01:19:48;;;;;;;;;;;;;;;18.75;70.50;96860.16;30001;983;1880;-73
2022/08/20 01:20:22;;;;;;;;;;;;;;;18.74;70.46;96862.09;30001;982;1885;-73
2022/08/20 01:20:56;;;;;;;;;;;;;;;18.78;70.58;96864.16;30001;982;1881;-73
2022/08/20 01:21:27;;;;;;;;;;;;;;;18.78;70.60;96864.16;30001;982;1863;-72
2022/08/20 01:21:59;;;;;;;;;;;;;;;18.78;70.68;96861.41;30001;982;1876;-71
2022/08/20 01:23:59;;;;;;;;;;;;;;;18.72;70.83;96869.06;30001;983;1880;-72
2022/08/20 01:24:35;;;;;;;;;;;;;;;18.72;70.93;96867.13;30001;983;1876;-72
2022/08/20 01:25:09;;;;;;;;;;;;;;;18.74;70.73;96870.34;30001;983;1881;-76
2022/08/20 01:25:43;;;;;;;;;;;;;;;18.77;70.68;96870.78;30001;983;1884;-70
2022/08/20 01:26:25;;;;;;;;;;;;;;;18.75;70.48;96865.62;30001;983;1881;-71
2022/08/20 01:26:56;;;;;;;;;;;;;;;18.75;70.74;96876.63;30001;983;1863;-71
2022/08/20 01:27:27;;;;;;;;;;;;;;;18.74;70.36;96864.84;30001;983;1854;-71
2022/08/20 01:27:58;;;;;;;;;;;;;;;18.73;70.86;96868.72;30001;982;1863;-71
2022/08/20 01:28:33;;;;;;;;;;;;;;;18.72;70.81;96864.38;30001;982;1876;-71
2022/08/20 01:29:09;;;;;;;;;;;;;;;18.73;70.75;96873.44;30001;982;1863;-74
2022/08/20 01:29:41;;;;;;;;;;;;;;;18.72;70.85;96872.62;30001;982;1876;-71
2022/08/20 01:30:12;;;;;;;;;;;;;;;18.71;71.00;96865.53;30001;982;1885;-73
2022/08/20 01:30:43;;;;;;;;;;;;;;;18.71;71.13;96871.03;30001;982;1881;-71
2022/08/20 01:31:18;;;;;;;;;;;;;;;18.70;70.94;96863.97;30001;983;1884;-74
2022/08/20 01:31:49;;;;;;;;;;;;;;;18.71;70.88;96864.75;30001;983;1880;-70
2022/08/20 01:32:21;;;;;;;;;;;;;;;18.71;70.91;96871.03;30001;983;1885;-77
2022/08/20 01:32:52;;;;;;;;;;;;;;;18.74;70.87;96869.53;30001;983;1880;-71
2022/08/20 01:33:23;;;;;;;;;;;;;;;18.74;70.82;96875.84;30001;983;1885;-71
2022/08/20 01:33:55;;;;;;;;;;;;;;;18.74;70.88;96875.84;30001;983;1880;-71
2022/08/20 01:34:26;;;;;;;;;;;;;;;18.73;70.70;96874.22;30001;983;1863;-70
2022/08/20 01:34:57;;;;;;;;;;;;;;;18.72;70.79;96869.88;30001;983;1876;-73
2022/08/20 01:35:28;;;;;;;;;;;;;;;18.73;70.79;96874.22;30001;982;1885;-73
2022/08/20 01:35:59;;;;;;;;;;;;;;;18.75;71.01;96871.94;30001;982;1881;-74
2022/08/20 01:36:36;;;;;;;;;;;;;;;18.75;70.63;96876.63;30001;982;1885;-71
2022/08/20 01:37:07;;;;;;;;;;;;;;;18.73;70.45;96879.72;30001;982;1859;-74
2022/08/20 01:37:38;;;;;;;;;;;;;;;18.75;70.86;96873.88;30001;983;1880;-71
2022/08/20 01:38:10;;;;;;;;;;;;;;;18.75;70.61;96877.44;30001;983;1880;-72
2022/08/20 01:38:41;;;;;;;;;;;;;;;18.79;70.79;96877.53;30001;983;1884;-76
2022/08/20 01:39:13;;;;;;;;;;;;;;;18.84;70.15;96863.56;30001;983;1858;-72
2022/08/20 01:39:43;;;;;;;;;;;;;;;18.83;70.51;96875.72;30001;983;1880;-56
2022/08/20 01:40:20;;;;;;;;;;;;;;;18.82;70.83;96881.56;30001;983;1880;-71
2022/08/20 01:41:20;;;;;;;;;;;;;;;18.79;70.67;96876.75;30001;983;1863;-71
2022/08/20 01:42:11;;;;;;;;;;;;;;;18.76;70.97;96878.25;30001;983;1872;-72
2022/08/20 01:42:45;;;;;;;;;;;;;;;18.73;70.85;96876.97;30001;971;1907;-74
2022/08/20 01:43:17;;;;;;;;;;;;;;;18.73;71.37;96876.97;30001;982;1881;-71
2022/08/20 01:43:48;;;;;;;;;;;;;;;18.74;71.15;96886.81;30001;982;1885;-70
2022/08/20 01:44:21;;;;;;;;;;;;;;;18.73;70.78;96879.72;30001;982;1881;-73
2022/08/20 01:44:52;;;;;;;;;;;;;;;18.76;70.71;96889.22;30001;982;1885;-75
2022/08/20 01:45:23;;;;;;;;;;;;;;;18.79;70.86;96882.25;30001;983;1880;-87
2022/08/20 01:45:54;;;;;;;;;;;;;;;18.82;70.82;96870.56;30001;983;1863;-70
2022/08/20 01:46:31;;;;;;;;;;;;;;;18.81;70.53;96885.44;30001;983;1876;-71
2022/08/20 01:47:11;;;;;;;;;;;;;;;18.79;71.21;96882.25;30001;983;1885;-71
2022/08/20 01:47:42;;;;;;;;;;;;;;;18.78;71.00;96880.62;30001;983;1880;-73
2022/08/20 01:48:14;;;;;;;;;;;;;;;18.75;70.77;96877.44;30001;983;1885;-71
2022/08/20 01:48:45;;;;;;;;;;;;;;;18.75;70.70;96880.19;30001;983;1858;-71
2022/08/20 01:49:20;;;;;;;;;;;;;;;18.75;70.81;96880.19;30001;983;1880;-71
2022/08/20 01:49:52;;;;;;;;;;;;;;;18.74;70.86;96881.31;30001;983;1881;-71
2022/08/20 01:50:25;;;;;;;;;;;;;;;18.74;70.95;96880.53;30001;982;1885;-71
2022/08/20 01:51:09;;;;;;;;;;;;;;;18.71;71.38;96879.28;30001;982;1881;-71
2022/08/20 01:51:40;;;;;;;;;;;;;;;18.73;71.10;96879.72;30001;982;1885;-76
2022/08/20 01:52:13;;;;;;;;;;;;;;;18.75;70.89;96887.62;30001;982;1881;-73
2022/08/20 01:53:04;;;;;;;;;;;;;;;18.75;70.84;96882.94;30001;983;1863;-71
2022/08/20 01:53:37;;;;;;;;;;;;;;;18.79;70.62;96879.50;30001;983;1849;-71
2022/08/20 01:54:08;;;;;;;;;;;;;;;18.79;70.58;96885.00;30001;983;1884;-71
2022/08/20 01:54:40;;;;;;;;;;;;;;;18.77;71.30;96882.59;30001;983;1880;-71
2022/08/20 01:55:12;;;;;;;;;;;;;;;18.75;70.87;96882.94;30001;983;1863;-72
2022/08/20 01:55:43;;;;;;;;;;;;;;;18.73;71.81;96885.22;30001;983;1876;-72
2022/08/20 01:56:16;;;;;;;;;;;;;;;18.70;71.51;96880.44;30001;983;1885;-71
2022/08/20 01:56:59;;;;;;;;;;;;;;;18.70;71.66;96887.88;30001;983;1880;-71
2022/08/20 01:57:30;;;;;;;;;;;;;;;18.68;71.43;96884.69;30001;982;1885;-72
2022/08/20 01:58:01;;;;;;;;;;;;;;;18.68;71.42;96892.94;30001;982;1881;-71
2022/08/20 01:58:33;;;;;;;;;;;;;;;18.67;71.61;96891.31;30001;982;1885;-75
2022/08/20 01:59:07;;;;;;;;;;;;;;;18.67;71.40;96892.13;30001;982;1881;-75
2022/08/20 01:59:38;;;;;;;;;;;;;;;18.69;71.48;96889.03;30001;982;1885;-72
2022/08/20 02:00:12;;;;;;;;;;;;;;;18.69;71.12;96884.34;30001;982;1859;-71
2022/08/20 02:00:43;;;;;;;;;;;;;;;18.70;71.65;96885.94;30001;983;1858;-70
2022/08/20 02:01:36;;;;;;;;;;;;;;;18.69;71.32;96889.84;30001;983;1880;-70
2022/08/20 02:02:09;;;;;;;;;;;;;;;18.69;71.60;96884.34;30001;983;1880;-72
2022/08/20 02:02:40;;;;;;;;;;;;;;;18.68;71.79;96885.47;30001;983;1881;-72
2022/08/20 02:03:11;;;;;;;;;;;;;;;18.67;71.41;96892.13;30001;983;1863;-71
2022/08/20 02:03:43;;;;;;;;;;;;;;;18.67;71.54;96892.13;30001;983;1876;-72
2022/08/20 02:04:15;;;;;;;;;;;;;;;18.67;71.80;96886.63;30001;983;1863;-71
2022/08/20 02:04:47;;;;;;;;;;;;;;;18.66;71.77;96887.78;30001;982;1876;-71
2022/08/20 02:05:19;;;;;;;;;;;;;;;18.66;71.70;96885.03;30001;982;1885;-71
2022/08/20 02:05:52;;;;;;;;;;;;;;;18.67;71.67;96888.56;30001;982;1881;-71
2022/08/20 02:06:24;;;;;;;;;;;;;;;18.66;71.78;96890.53;30001;982;1885;-70
2022/08/20 02:06:57;;;;;;;;;;;;;;;18.67;71.87;96896.81;30001;982;1881;-72
2022/08/20 02:07:28;;;;;;;;;;;;;;;18.67;71.80;96896.81;30001;982;1885;-71
2022/08/20 02:08:00;;;;;;;;;;;;;;;18.66;72.20;96896.03;30001;983;1880;-72
2022/08/20 02:08:32;;;;;;;;;;;;;;;18.65;72.95;96888.12;30001;983;1884;-71
2022/08/20 02:09:04;;;;;;;;;;;;;;;18.64;72.92;96894.75;30001;983;1880;-71
2022/08/20 02:09:36;;;;;;;;;;;;;;;18.63;72.59;96890.41;30001;983;1863;-73
2022/08/20 02:10:09;;;;;;;;;;;;;;;18.63;72.19;96884.91;30001;983;1876;-72
2022/08/20 02:10:40;;;;;;;;;;;;;;;18.63;72.12;96885.72;30001;983;1885;-76
2022/08/20 02:11:11;;;;;;;;;;;;;;;18.64;72.18;96892.81;30001;983;1859;-72
2022/08/20 02:11:42;;;;;;;;;;;;;;;18.65;72.02;96891.66;30001;983;1881;-72
2022/08/20 02:12:13;;;;;;;;;;;;;;;18.68;71.61;96890.19;30001;982;1881;-72
2022/08/20 02:12:44;;;;;;;;;;;;;;;18.70;71.60;96896.12;30001;982;1885;-72
2022/08/20 02:13:18;;;;;;;;;;;;;;;18.71;71.27;96887.50;30001;982;1881;-71
2022/08/20 02:13:51;;;;;;;;;;;;;;;18.70;72.37;96885.94;30001;982;1885;-71
2022/08/20 02:14:22;;;;;;;;;;;;;;;18.70;72.08;96891.44;30001;982;1881;-70
2022/08/20 02:14:54;;;;;;;;;;;;;;;18.70;72.08;96891.44;30001;983;1884;-69
2022/08/20 02:15:25;;;;;;;;;;;;;;;18.70;71.83;96890.63;30001;983;1880;-69
2022/08/20 02:15:56;;;;;;;;;;;;;;;18.69;71.92;96889.84;30001;983;1863;-73
2022/08/20 02:16:30;;;;;;;;;;;;;;;18.69;72.10;96889.84;30001;983;1876;-71
2022/08/20 02:17:01;;;;;;;;;;;;;;;18.72;71.91;96894.62;30001;983;1885;-75
2022/08/20 02:17:32;;;;;;;;;;;;;;;18.76;71.50;96894.72;30001;983;1761;-71
2022/08/20 02:18:07;;;;;;;;;;;;;;;18.77;71.66;96892.78;30001;983;1880;-74
2022/08/20 02:18:38;;;;;;;;;;;;;;;18.77;71.24;96890.84;30001;983;1881;-70
2022/08/20 02:19:12;;;;;;;;;;;;;;;18.78;71.38;96886.13;30001;983;1885;-71
2022/08/20 02:19:45;;;;;;;;;;;;;;;18.78;71.28;96891.63;30001;982;1881;-70
2022/08/20 02:20:18;;;;;;;;;;;;;;;18.77;71.46;96892.78;30001;982;1885;-72
2022/08/20 02:20:50;;;;;;;;;;;;;;;18.75;71.65;96888.44;30001;982;1881;-71
2022/08/20 02:21:21;;;;;;;;;;;;;;;18.75;71.38;96893.13;30001;982;1885;-74
2022/08/20 02:21:54;;;;;;;;;;;;;;;18.77;71.05;96895.53;30001;982;1881;-70
2022/08/20 02:22:35;;;;;;;;;;;;;;;18.78;71.28;96891.63;30001;983;1885;-71
2022/08/20 02:23:06;;;;;;;;;;;;;;;18.77;71.41;96890.03;30001;983;1858;-71
2022/08/20 02:23:37;;;;;;;;;;;;;;;18.75;71.22;96893.13;30001;983;1880;-71
2022/08/20 02:24:09;;;;;;;;;;;;;;;18.74;71.42;96897.81;30001;983;1880;-73
2022/08/20 02:24:39;;;;;;;;;;;;;;;18.73;71.57;96892.66;30001;983;1885;-71
2022/08/20 02:25:11;;;;;;;;;;;;;;;18.73;71.54;96896.22;30001;983;1880;-72
2022/08/20 02:25:44;;;;;;;;;;;;;;;18.70;71.80;96896.94;30001;983;1863;-70
2022/08/20 02:26:17;;;;;;;;;;;;;;;18.69;71.89;96895.34;30001;983;1876;-73
2022/08/20 02:26:50;;;;;;;;;;;;;;;18.68;71.99;96901.97;30001;983;1863;-73
2022/08/20 02:27:22;;;;;;;;;;;;;;;18.69;71.85;96900.84;30001;982;1876;-75
2022/08/20 02:27:54;;;;;;;;;;;;;;;18.69;71.58;96900.84;30001;982;1885;-72
2022/08/20 02:28:26;;;;;;;;;;;;;;;18.69;71.70;96898.09;30001;982;1881;-70
2022/08/20 02:28:58;;;;;;;;;;;;;;;18.70;71.66;96896.94;30001;982;1885;-72
2022/08/20 02:29:29;;;;;;;;;;;;;;;18.71;71.66;96900.50;30001;982;1881;-71
2022/08/20 02:30:01;;;;;;;;;;;;;;;18.69;71.92;96906.31;30001;983;1863;-72
2022/08/20 02:30:35;;;;;;;;;;;;;;;18.69;71.61;96905.53;30001;983;1876;-72
2022/08/20 02:31:07;;;;;;;;;;;;;;;18.67;71.92;96903.12;30001;983;1863;-71
2022/08/20 02:31:39;;;;;;;;;;;;;;;18.67;71.63;96907.81;30001;983;1876;-72
2022/08/20 02:32:13;;;;;;;;;;;;;;;18.67;71.89;96903.12;30001;983;1885;-71
2022/08/20 02:32:44;;;;;;;;;;;;;;;18.66;71.70;96909.75;30001;983;1880;-71
2022/08/20 02:33:17;;;;;;;;;;;;;;;18.66;72.05;96901.53;30001;983;1885;-72
2022/08/20 02:33:48;;;;;;;;;;;;;;;18.66;71.78;96898.78;30001;987;1881;-72
2022/08/20 02:34:19;;;;;;;;;;;;;;;18.67;72.15;96899.56;30001;975;1893;-71
2022/08/20 02:34:50;;;;;;;;;;;;;;;18.67;71.94;96907.81;30001;982;1881;-71
2022/08/20 02:35:21;;;;;;;;;;;;;;;18.65;72.06;96899.91;30001;982;1863;-72
2022/08/20 02:35:55;;;;;;;;;;;;;;;18.65;72.30;96899.13;30001;982;1876;-71
2022/08/20 02:36:26;;;;;;;;;;;;;;;18.64;72.84;96908.50;30001;982;1886;-71
2022/08/20 02:36:57;;;;;;;;;;;;;;;18.63;72.52;96901.41;30001;982;1881;-72
2022/08/20 02:37:28;;;;;;;;;;;;;;;18.62;72.40;96895.09;30001;983;1885;-73
2022/08/20 02:37:59;;;;;;;;;;;;;;;18.62;72.32;96900.59;30001;983;1880;-72
2022/08/20 02:38:29;;;;;;;;;;;;;;;18.62;72.60;96906.09;30001;983;1885;-71
2022/08/20 02:39:01;;;;;;;;;;;;;;;18.62;72.33;96908.84;30001;983;1880;-71
2022/08/20 02:39:33;;;;;;;;;;;;;;;18.62;72.46;96900.59;30001;983;1807;-73
2022/08/20 02:40:06;;;;;;;;;;;;;;;18.62;72.69;96903.34;30001;983;1880;-71
2022/08/20 02:40:39;;;;;;;;;;;;;;;18.61;72.52;96907.25;30001;983;1863;-72
2022/08/20 02:41:11;;;;;;;;;;;;;;;18.61;72.52;96904.50;30001;983;1876;-73
2022/08/20 02:41:42;;;;;;;;;;;;;;;18.61;72.58;96900.94;30001;983;1885;-71
2022/08/20 02:42:13;;;;;;;;;;;;;;;18.60;72.61;96904.84;30001;982;1859;-71
2022/08/20 02:42:44;;;;;;;;;;;;;;;18.59;72.67;96901.25;30001;982;1881;-72
2022/08/20 02:43:18;;;;;;;;;;;;;;;18.59;72.56;96906.75;30001;982;1881;-72
2022/08/20 02:43:50;;;;;;;;;;;;;;;18.59;72.59;96901.25;30001;982;1885;-72
2022/08/20 02:44:20;;;;;;;;;;;;;;;18.59;72.73;96900.47;30001;982;1881;-72
2022/08/20 02:44:53;;;;;;;;;;;;;;;18.58;72.71;96905.16;30001;983;1884;-72
2022/08/20 02:45:25;;;;;;;;;;;;;;;18.59;72.72;96901.25;30001;983;1880;-73
2022/08/20 02:45:56;;;;;;;;;;;;;;;18.58;72.99;96899.66;30001;983;1863;-71
2022/08/20 02:46:27;;;;;;;;;;;;;;;18.57;72.78;96903.53;30001;983;1854;-72
2022/08/20 02:46:59;;;;;;;;;;;;;;;18.58;72.72;96905.16;30001;983;1885;-70
2022/08/20 02:47:31;;;;;;;;;;;;;;;18.56;72.81;96901.94;30001;983;1880;-71
2022/08/20 02:48:02;;;;;;;;;;;;;;;18.57;72.66;96905.50;30001;983;1885;-71
2022/08/20 02:48:33;;;;;;;;;;;;;;;18.57;72.79;96897.25;30001;983;1881;-71
2022/08/20 02:49:05;;;;;;;;;;;;;;;18.57;72.79;96898.03;30001;982;1885;-71
2022/08/20 02:49:35;;;;;;;;;;;;;;;18.57;73.35;96906.28;30001;982;1881;-72
2022/08/20 02:50:09;;;;;;;;;;;;;;;18.59;73.24;96900.47;30001;982;1885;-79
2022/08/20 02:50:42;;;;;;;;;;;;;;;18.60;72.76;96902.88;30001;982;1881;-73
2022/08/20 02:51:13;;;;;;;;;;;;;;;18.61;72.70;96910.00;30001;982;1885;-71
2022/08/20 02:51:45;;;;;;;;;;;;;;;18.60;72.54;96902.09;30001;982;1859;-71
2022/08/20 02:52:15;;;;;;;;;;;;;;;18.60;72.72;96908.38;30001;983;1880;-72
2022/08/20 02:52:46;;;;;;;;;;;;;;;18.59;72.79;96901.25;30001;983;1880;-73
2022/08/20 02:53:18;;;;;;;;;;;;;;;18.60;72.63;96902.09;30001;983;1885;-72
2022/08/20 02:53:49;;;;;;;;;;;;;;;18.60;72.73;96902.88;30001;983;1881;-72
2022/08/20 02:54:20;;;;;;;;;;;;;;;18.61;72.56;96906.44;30001;983;1885;-74
2022/08/20 02:54:51;;;;;;;;;;;;;;;18.60;72.48;96897.41;30001;983;1881;-71
2022/08/20 02:55:22;;;;;;;;;;;;;;;18.61;72.67;96903.69;30001;983;1885;-73
2022/08/20 02:55:53;;;;;;;;;;;;;;;18.61;72.61;96910.00;30001;983;1880;-73
2022/08/20 02:56:24;;;;;;;;;;;;;;;18.61;72.52;96907.25;30001;982;1885;-73
2022/08/20 02:56:55;;;;;;;;;;;;;;;18.61;72.32;96903.69;30001;982;1859;-72
2022/08/20 02:57:27;;;;;;;;;;;;;;;18.61;72.53;96896.25;30001;982;1881;-71
2022/08/20 02:57:59;;;;;;;;;;;;;;;18.61;72.61;96904.50;30001;982;1881;-71